Time;durP1;ratioP1;P1;durP2;ratioP2;P2;SDS_P1;SDS_P2;PMS_P1;PMS_P2;Temp;Humidity;BMP_temperature;BMP_pressure;BME280_temperature;BME280_humidity;BME280_pressure;Samples;Min_cycle;Max_cycle;Signal;HPM_P1;HPM_P2
2022/07/18 00:00:01;;;;;;;;;7.25;7.25;;;;;26.81;28.53;101526.97;5058186;28;45319;-66
2022/07/18 00:02:26;;;;;;;;;8.00;8.00;;;;;26.87;28.04;101539.13;5059066;28;45980;-66
2022/07/18 00:04:52;;;;;;;;;10.25;9.25;;;;;26.84;28.70;101534.00;5058845;28;45353;-66
2022/07/18 00:07:18;;;;;;;;;8.50;8.50;;;;;26.84;28.38;101529.41;5058695;28;45362;-67
2022/07/18 00:09:44;;;;;;;;;12.00;9.75;;;;;26.77;28.00;101522.91;5043777;28;45457;-66
2022/07/18 00:12:10;;;;;;;;;9.00;7.00;;;;;26.72;28.10;101525.28;5043874;28;46039;-66
2022/07/18 00:14:36;;;;;;;;;10.50;6.75;;;;;26.74;27.77;101534.16;5037325;28;45327;-66
2022/07/18 00:17:02;;;;;;;;;10.75;7.75;;;;;26.70;28.50;101527.34;5038338;28;45508;-66
2022/07/18 00:19:29;;;;;;;;;7.00;7.00;;;;;26.70;27.89;101530.06;5038695;28;45327;-66
2022/07/18 00:21:54;;;;;;;;;9.50;9.50;;;;;26.61;28.19;101518.28;5055625;28;46814;-66
2022/07/18 00:24:19;;;;;;;;;9.00;8.75;;;;;26.62;28.96;101524.59;5057983;28;45425;-66
2022/07/18 00:26:45;;;;;;;;;9.50;8.50;;;;;26.62;29.58;101522.72;5058241;28;45828;-66
2022/07/18 00:29:10;;;;;;;;;11.50;8.00;;;;;26.59;28.51;101514.00;5057250;28;45323;-66
2022/07/18 00:31:36;;;;;;;;;8.00;8.00;;;;;26.56;28.87;101508.88;5057159;28;45276;-66
2022/07/18 00:34:02;;;;;;;;;7.50;7.50;;;;;26.54;29.23;101516.38;5038069;28;45355;-66
2022/07/18 00:36:28;;;;;;;;;10.50;10.00;;;;;26.55;28.94;101526.25;5053964;28;45332;-67
2022/07/18 00:38:54;;;;;;;;;9.75;9.75;;;;;26.53;29.38;101520.97;5038021;28;45470;-66
2022/07/18 00:41:20;;;;;;;;;10.00;9.00;;;;;26.52;28.94;101519.28;5037816;28;45394;-66
2022/07/18 00:43:45;;;;;;;;;10.75;10.00;;;;;26.43;28.80;101510.25;5037623;28;45239;-66
2022/07/18 00:46:11;;;;;;;;;8.00;8.00;;;;;26.47;29.80;101518.06;5067928;28;45370;-66
2022/07/18 00:48:38;;;;;;;;;10.00;9.25;;;;;26.41;29.00;101516.84;5037995;28;45338;-67
2022/07/18 00:51:04;;;;;;;;;13.75;10.00;;;;;26.40;29.27;101517.88;5037597;28;46186;-67
2022/07/18 00:53:29;;;;;;;;;11.75;10.25;;;;;26.36;29.55;101519.25;5038715;28;45308;-66
2022/07/18 00:55:55;;;;;;;;;9.00;8.25;;;;;26.31;29.79;101506.09;5038716;28;45220;-66
2022/07/18 00:58:20;;;;;;;;;11.50;10.25;;;;;26.32;29.43;101518.69;5038413;28;45469;-65
2022/07/18 01:03:30;;;;;;;;;10.25;10.00;;;;;26.22;29.96;101507.06;5037656;28;45256;-66
2022/07/18 01:05:55;;;;;;;;;11.75;11.75;;;;;26.22;30.03;101509.78;5037564;28;45390;-66
2022/07/18 01:08:21;;;;;;;;;8.25;7.00;;;;;26.23;29.51;101511.50;5037952;28;45988;-67
2022/07/18 01:10:47;;;;;;;;;6.00;6.00;;;;;26.20;29.69;101500.94;5053325;28;46187;-66
2022/07/18 01:13:12;;;;;;;;;11.00;11.00;;;;;26.21;29.83;101509.97;5055519;28;45343;-66
2022/07/18 01:15:38;;;;;;;;;17.75;9.75;;;;;26.17;29.31;101504.84;5057793;28;45475;-67
2022/07/18 01:18:04;;;;;;;;;9.00;9.00;;;;;26.08;29.69;101497.66;5056258;28;45442;-66
2022/07/18 01:20:31;;;;;;;;;8.50;8.00;;;;;26.11;29.83;101499.19;5057464;28;45329;-67
2022/07/18 01:22:58;;;;;;;;;10.00;10.00;;;;;26.11;30.31;101501.91;5046540;28;45451;-68
2022/07/18 01:25:23;;;;;;;;;15.00;12.75;;;;;26.12;29.45;101511.78;5057328;28;45299;-66
2022/07/18 01:27:48;;;;;;;;;10.50;7.50;;;;;26.04;29.25;101501.75;5055761;28;45667;-66
2022/07/18 01:30:14;;;;;;;;;13.25;10.00;;;;;26.06;29.52;101507.88;5055829;28;45420;-66
2022/07/18 01:32:41;;;;;;;;;10.50;10.50;;;;;26.04;29.86;101520.81;5057028;28;45256;-67
2022/07/18 01:35:07;;;;;;;;;11.50;11.50;;;;;26.02;30.76;101516.53;5056207;28;45279;-67
2022/07/18 01:37:32;;;;;;;;;9.50;9.50;;;;;25.98;30.13;101516.00;5057875;28;45739;-65
2022/07/18 01:39:58;;;;;;;;;19.00;12.50;;;;;25.97;30.25;101529.81;5056093;28;46261;-65
2022/07/18 01:42:23;;;;;;;;;18.67;17.00;;;;;25.96;29.66;101528.94;5056835;28;45301;-64
2022/07/18 01:44:49;;;;;;;;;15.33;14.33;;;;;25.88;30.48;101507.94;5054781;28;45987;-66
2022/07/18 01:47:14;;;;;;;;;16.33;16.33;;;;;25.87;29.95;101500.78;5056059;28;45650;-66
2022/07/18 01:49:40;;;;;;;;;18.00;16.33;;;;;25.87;30.44;101503.53;5056921;27;45560;-67
2022/07/18 01:52:07;;;;;;;;;21.00;18.00;;;;;25.88;30.57;101494.31;5056831;28;45545;-66
2022/07/18 01:54:33;;;;;;;;;19.25;17.75;;;;;25.90;30.09;101499.59;5056074;28;45437;-66
2022/07/18 01:57:00;;;;;;;;;18.67;17.00;;;;;25.86;30.57;101496.38;5056380;28;45452;-68
2022/07/18 01:59:26;;;;;;;;;18.00;17.25;;;;;25.80;30.38;101490.72;5055927;28;46408;-65
2022/07/18 02:01:51;;;;;;;;;19.00;18.33;;;;;25.67;30.91;101473.94;5056542;28;45188;-66
2022/07/18 02:04:17;;;;;;;;;21.00;17.67;;;;;25.77;30.81;101482.84;5056774;28;45610;-67
2022/07/18 02:06:42;;;;;;;;;18.67;17.00;;;;;25.75;30.43;101480.31;5056726;28;45287;-66
2022/07/18 02:09:09;;;;;;;;;16.00;16.00;;;;;25.72;31.27;101471.59;5038992;28;45458;-66
2022/07/18 02:11:35;;;;;;;;;17.75;16.25;;;;;25.67;30.65;101466.63;5052013;28;45379;-66
2022/07/18 02:14:02;;;;;;;;;22.67;18.00;;;;;25.71;30.63;101476.19;5036648;28;45394;-66
2022/07/18 02:16:28;;;;;;;;;16.25;13.50;;;;;25.70;30.69;101474.50;5036509;28;45272;-65
2022/07/18 02:18:55;;;;;;;;;14.25;13.00;;;;;25.70;30.69;101479.09;5036085;28;46228;-67
2022/07/18 02:21:20;;;;;;;;;15.00;14.00;;;;;25.66;30.31;101481.28;5053283;28;45347;-67
2022/07/18 02:23:46;;;;;;;;;9.67;9.67;;;;;25.64;30.59;101479.69;5043928;28;45457;-67
2022/07/18 02:26:11;;;;;;;;;18.67;16.00;;;;;25.59;31.08;101488.38;5036605;28;45162;-67
2022/07/18 02:28:37;;;;;;;;;19.33;17.00;;;;;25.56;31.65;101489.53;5035929;28;45897;-66
2022/07/18 02:31:04;;;;;;;;;16.50;12.50;;;;;25.46;31.54;101482.50;5036506;28;45233;-66
2022/07/18 02:33:30;;;;;;;;;16.75;14.25;;;;;25.48;31.92;101485.91;5036590;28;45998;-67
2022/07/18 02:35:55;;;;;;;;;13.00;12.25;;;;;25.49;31.53;101474.00;5036254;28;45346;-66
2022/07/18 02:38:21;;;;;;;;;16.67;13.33;;;;;25.42;31.80;101479.25;5034988;28;45945;-66
2022/07/18 02:40:46;;;;;;;;;13.75;11.25;;;;;25.51;31.58;101485.59;5035678;28;45479;-67
2022/07/18 02:43:12;;;;;;;;;13.00;11.33;;;;;25.40;31.94;101478.56;5035998;28;45498;-67
2022/07/18 02:45:38;;;;;;;;;11.75;10.75;;;;;25.36;31.91;101476.31;5037913;28;45437;-67
2022/07/18 02:48:03;;;;;;;;;12.50;11.00;;;;;25.31;32.03;101484.97;5035693;28;45482;-66
2022/07/18 02:50:29;;;;;;;;;16.75;14.00;;;;;25.31;32.03;101492.28;5035804;28;45347;-67
2022/07/18 02:52:56;;;;;;;;;10.50;10.50;;;;;25.27;32.15;101500.78;5036006;28;45288;-66
2022/07/18 02:55:23;;;;;;;;;11.25;9.75;;;;;25.22;32.65;101504.97;5036137;28;45324;-66
2022/07/18 02:57:49;;;;;;;;;12.00;11.25;;;;;25.20;32.39;101502.41;5051883;28;45267;-67
2022/07/18 03:00:16;;;;;;;;;12.00;12.00;;;;;25.16;32.37;101492.00;5055741;28;45442;-68
2022/07/18 03:02:42;;;;;;;;;13.25;11.75;;;;;25.17;32.80;101499.16;5055367;28;45288;-67
2022/07/18 03:05:08;;;;;;;;;14.75;12.50;;;;;25.18;32.29;101499.00;5056170;28;45402;-68
2022/07/18 03:07:33;;;;;;;;;11.00;10.00;;;;;25.04;32.55;101488.69;5055335;28;45589;-67
2022/07/18 03:09:59;;;;;;;;;9.25;9.25;;;;;25.03;32.68;101491.56;5036004;28;45271;-66
2022/07/18 03:12:24;;;;;;;;;14.50;13.00;;;;;24.97;32.58;101499.31;5035782;28;45731;-65
2022/07/18 03:14:50;;;;;;;;;11.33;11.33;;;;;24.85;32.95;101494.25;5036249;28;45337;-66
2022/07/18 03:17:16;;;;;;;;;12.25;9.75;;;;;24.85;32.66;101491.53;5035720;28;45441;-66
2022/07/18 03:19:41;;;;;;;;;12.25;12.25;;;;;24.87;32.93;101486.78;5037591;28;45342;-66
2022/07/18 03:22:07;;;;;;;;;14.67;11.00;;;;;24.83;32.69;101488.13;5056046;28;45247;-65
2022/07/18 03:24:32;;;;;;;;;10.33;10.00;;;;;24.77;33.05;101481.47;5037789;28;45357;-66
2022/07/18 03:26:58;;;;;;;;;12.67;12.00;;;;;24.73;33.37;101474.59;5018020;28;46988;-66
2022/07/18 03:29:23;;;;;;;;;11.25;9.75;;;;;24.73;33.21;101476.47;5035894;28;45372;-66
2022/07/18 03:31:49;;;;;;;;;14.00;12.00;;;;;24.78;33.32;101479.59;5036143;28;45482;-67
2022/07/18 03:34:15;;;;;;;;;12.75;9.00;;;;;24.68;33.13;101466.94;5034109;28;45618;-66
2022/07/18 03:36:40;;;;;;;;;9.00;7.75;;;;;24.64;33.53;101462.81;5050627;28;46912;-66
2022/07/18 03:39:07;;;;;;;;;9.25;9.00;;;;;24.68;33.28;101466.94;5035464;28;45321;-67
2022/07/18 03:41:32;;;;;;;;;12.33;10.67;;;;;24.69;33.32;101468.63;5035532;28;45433;-66
2022/07/18 03:43:58;;;;;;;;;14.00;10.75;;;;;24.71;33.49;101465.75;5041170;28;46490;-67
2022/07/18 03:46:23;;;;;;;;;12.00;10.33;;;;;24.73;33.33;101465.59;5036493;28;46183;-66
2022/07/18 03:48:49;;;;;;;;;13.00;9.00;;;;;24.71;33.04;101463.88;5035261;28;45259;-67
2022/07/18 03:51:14;;;;;;;;;12.50;11.75;;;;;24.66;33.24;101460.78;5037450;28;45612;-66
2022/07/18 03:53:43;;;;;;;;;10.50;9.50;;;;;24.65;32.81;101471.84;5039148;28;45405;-68
2022/07/18 03:56:09;;;;;;;;;9.50;8.50;;;;;24.68;33.13;101477.81;5048169;28;46200;-66
2022/07/18 03:58:34;;;;;;;;;10.50;9.50;;;;;24.60;33.95;101465.97;5053419;28;45354;-67
2022/07/18 04:01:00;;;;;;;;;11.75;10.75;;;;;24.56;33.81;101472.75;5038396;28;45327;-67
2022/07/18 04:03:25;;;;;;;;;9.00;9.00;;;;;24.50;33.96;101474.25;5038581;28;45434;-67
2022/07/18 04:05:51;;;;;;;;;15.33;12.33;;;;;24.40;34.53;101478.91;5038015;28;46194;-67
2022/07/18 04:08:16;;;;;;;;;13.33;11.00;;;;;24.29;34.87;101471.78;5047797;28;45370;-67
2022/07/18 04:10:45;;;;;;;;;9.33;9.33;;;;;24.24;35.06;101489.56;5057385;28;45398;-67
2022/07/18 04:13:10;;;;;;;;;14.00;11.33;;;;;24.17;34.94;101485.75;5059332;28;45185;-68
2022/07/18 04:15:37;;;;;;;;;10.00;10.00;;;;;24.12;34.77;101489.78;5058981;28;45808;-67
2022/07/18 04:18:07;;;;;;;;;14.67;12.67;;;;;24.08;34.77;101480.19;5059019;28;45360;-65
2022/07/18 04:20:34;;;;;;;;;14.33;11.00;;;;;24.09;34.89;101490.09;5048245;28;45384;-66
2022/07/18 04:23:02;;;;;;;;;11.00;9.67;;;;;24.03;34.98;101471.66;5045072;28;45560;-66
2022/07/18 04:25:32;;;;;;;;;9.00;9.00;;;;;24.12;34.47;101487.06;5057966;28;45634;-66
2022/07/18 04:27:58;;;;;;;;;8.67;8.67;;;;;24.04;35.00;101478.81;5056831;28;45504;-66
2022/07/18 04:30:26;;;;;;;;;13.67;11.00;;;;;24.05;35.12;101482.38;5058346;28;45759;-66
2022/07/18 04:32:53;;;;;;;;;11.67;11.67;;;;;24.01;35.31;101468.25;5057557;28;45521;-66
2022/07/18 04:35:18;;;;;;;;;14.00;12.67;;;;;24.01;35.47;101457.38;5056798;28;46175;-67
2022/07/18 04:37:44;;;;;;;;;15.33;14.00;;;;;23.99;35.18;101448.53;5057643;28;45441;-67
2022/07/18 04:40:10;;;;;;;;;13.67;11.00;;;;;23.98;35.24;101430.50;5058318;28;45425;-66
2022/07/18 04:42:36;;;;;;;;;14.33;11.33;;;;;24.05;35.15;101442.47;5057962;28;45365;-66
2022/07/18 04:45:03;;;;;;;;;14.33;13.00;;;;;24.07;35.57;101445.88;5040463;28;45531;-66
2022/07/18 04:47:28;;;;;;;;;12.67;11.67;;;;;24.05;35.32;101431.59;5036980;28;45392;-66
2022/07/18 04:49:55;;;;;;;;;12.00;9.67;;;;;24.15;34.44;101447.00;5038425;28;45190;-66
2022/07/18 04:52:21;;;;;;;;;9.00;9.00;;;;;24.19;34.70;101449.25;5037818;28;45269;-66
2022/07/18 04:54:46;;;;;;;;;26.33;23.33;;;;;24.21;34.54;101438.22;5037573;28;45558;-66
2022/07/18 04:57:14;;;;;;;;;10.33;8.33;;;;;24.23;34.17;101436.22;5046675;28;45755;-65
2022/07/18 04:59:43;;;;;;;;;8.25;7.00;;;;;24.26;34.40;101433.19;5038344;28;45512;-67
2022/07/18 05:02:09;;;;;;;;;6.25;6.25;;;;;24.29;33.87;101419.28;5036684;28;45363;-69
2022/07/18 05:04:37;;;;;;;;;9.33;9.33;;;;;24.32;33.67;101417.13;5038081;28;45455;-68
2022/07/18 05:07:03;;;;;;;;;8.00;6.33;;;;;24.37;33.57;101413.97;5038063;28;45334;-65
2022/07/18 05:09:29;;;;;;;;;5.00;5.00;;;;;24.36;33.09;101415.81;5056841;28;45281;-68
2022/07/18 05:11:55;;;;;;;;;6.67;6.00;;;;;24.39;33.63;101420.09;5058457;28;45296;-66
2022/07/18 05:14:20;;;;;;;;;7.00;6.33;;;;;24.40;32.88;101411.78;5057690;28;46444;-67
2022/07/18 05:16:47;;;;;;;;;5.00;5.00;;;;;24.44;31.94;101408.75;5073099;27;45256;-67
2022/07/18 05:19:12;;;;;;;;;3.75;3.75;;;;;24.42;32.05;101389.88;5057942;28;45437;-67
2022/07/18 05:21:38;;;;;;;;;4.50;4.50;;;;;24.47;31.72;101389.38;5056511;28;46927;-66
2022/07/18 05:24:03;;;;;;;;;5.25;4.00;;;;;24.52;31.48;101387.06;5057366;28;45752;-66
2022/07/18 05:26:29;;;;;;;;;4.00;4.00;;;;;24.52;31.83;101379.75;5057561;27;45492;-67
2022/07/18 05:28:54;;;;;;;;;5.50;5.00;;;;;24.55;31.21;101395.75;5057441;28;46123;-66
2022/07/18 05:31:20;;;;;;;;;3.00;3.00;;;;;24.54;31.16;101410.38;5056546;28;45336;-66
2022/07/18 05:33:45;;;;;;;;;5.00;5.00;;;;;24.61;31.27;101438.66;5055891;28;45361;-66
2022/07/18 05:36:11;;;;;;;;;4.50;4.00;;;;;24.60;30.92;101453.25;5056747;28;45213;-60
2022/07/18 05:38:36;;;;;;;;;5.75;4.75;;;;;24.60;31.83;101455.09;5057385;28;45292;-58
2022/07/18 05:41:02;;;;;;;;;7.25;5.00;;;;;24.68;31.06;101458.75;5057579;28;45316;-57
2022/07/18 05:43:27;;;;;;;;;9.33;8.00;;;;;24.71;32.18;101458.44;5056165;28;45933;-57
2022/07/18 05:45:52;;;;;;;;;11.33;11.33;;;;;24.74;31.86;101464.56;5056985;28;45283;-57
2022/07/18 05:48:18;;;;;;;;;6.67;6.67;;;;;24.70;32.66;101458.59;5056765;28;45355;-57
2022/07/18 05:50:44;;;;;;;;;10.50;10.50;;;;;24.76;32.85;101462.59;5057819;28;45657;-58
2022/07/18 05:53:11;;;;;;;;;21.00;15.00;;;;;24.71;33.91;101452.16;5056834;28;47069;-58
2022/07/18 05:55:37;;;;;;;;;16.67;14.67;;;;;24.73;33.88;101457.44;5055843;28;45557;-58
2022/07/18 05:58:02;;;;;;;;;15.00;13.67;;;;;24.71;34.35;101449.44;5042705;27;45740;-57
2022/07/18 06:00:29;;;;;;;;;13.67;12.33;;;;;24.68;34.47;101453.31;5036958;28;45457;-56
2022/07/18 06:02:54;;;;;;;;;13.67;13.33;;;;;24.71;34.10;101461.16;5036261;28;47137;-57
2022/07/18 06:05:20;;;;;;;;;14.67;13.33;;;;;24.72;34.27;101459.28;5036585;28;45274;-58
2022/07/18 06:07:45;;;;;;;;;14.67;13.00;;;;;24.68;34.33;101445.16;5037867;28;45431;-64
2022/07/18 06:10:11;;;;;;;;;16.00;15.25;;;;;24.82;34.21;101451.06;5055642;28;45380;-68
2022/07/18 06:12:36;;;;;;;;;16.33;13.67;;;;;24.80;34.57;101436.75;5053127;28;47871;-67
2022/07/18 06:15:02;;;;;;;;;19.00;13.33;;;;;24.80;35.27;101423.16;5056347;28;45257;-64
2022/07/18 06:17:37;;;;;;;;;15.00;11.67;;;;;24.88;34.45;101439.56;5072506;28;45291;-64
2022/07/18 06:20:05;;;;;;;;;16.67;15.00;;;;;24.76;34.15;101424.50;5052442;28;45734;-64
2022/07/18 06:22:30;;;;;;;;;15.67;14.67;;;;;24.85;34.91;101445.28;5021751;28;45554;-64
2022/07/18 06:24:56;;;;;;;;;23.00;20.67;;;;;24.85;34.73;101437.13;5055175;28;45401;-65
2022/07/18 06:27:21;;;;;;;;;17.67;16.33;;;;;24.89;34.87;101441.25;5057181;28;45399;-64
2022/07/18 06:29:47;;;;;;;;;15.33;12.67;;;;;24.87;34.57;101433.25;5056128;28;45628;-65
2022/07/18 06:32:12;;;;;;;;;13.00;12.00;;;;;24.92;34.25;101452.69;5054420;28;46577;-65
2022/07/18 06:34:38;;;;;;;;;13.33;11.67;;;;;24.94;34.99;101450.66;5056635;28;45530;-64
2022/07/18 06:37:03;;;;;;;;;16.00;13.33;;;;;24.98;35.38;101452.03;5037642;28;45482;-66
2022/07/18 06:39:29;;;;;;;;;15.25;13.75;;;;;24.99;35.03;101452.88;5036450;28;45344;-64
2022/07/18 06:41:54;;;;;;;;;14.67;12.33;;;;;25.00;34.70;101451.88;5036000;28;46376;-65
2022/07/18 06:44:20;;;;;;;;;11.33;11.33;;;;;25.07;34.75;101457.56;5041269;28;45352;-64
2022/07/18 06:46:45;;;;;;;;;14.00;10.67;;;;;25.05;34.41;101452.28;5056253;28;45288;-65
2022/07/18 06:49:10;;;;;;;;;12.67;11.00;;;;;25.14;35.02;101456.78;5056565;28;45232;-64
2022/07/18 06:51:36;;;;;;;;;11.00;11.00;;;;;25.19;35.15;101450.84;5054898;28;46314;-64
2022/07/18 06:54:02;;;;;;;;;11.00;10.50;;;;;25.22;34.83;101454.09;5055752;28;45288;-64
2022/07/18 06:56:27;;;;;;;;;14.33;11.00;;;;;25.27;35.21;101451.78;5053857;28;45287;-64
2022/07/18 06:58:53;;;;;;;;;16.00;13.33;;;;;25.30;35.13;101456.03;5053637;28;45399;-64
2022/07/18 07:01:20;;;;;;;;;13.50;11.50;;;;;25.36;35.16;101449.06;5065461;27;47378;-64
2022/07/18 07:03:47;;;;;;;;;12.50;10.50;;;;;25.41;34.67;101447.59;5035787;28;45386;-64
2022/07/18 07:06:13;;;;;;;;;12.33;9.00;;;;;25.43;34.55;101439.25;5034451;28;45502;-65
2022/07/18 07:08:39;;;;;;;;;15.00;13.00;;;;;25.48;35.13;101442.34;5044668;28;45328;-65
2022/07/18 07:11:04;;;;;;;;;13.00;13.00;;;;;25.61;34.71;101464.53;5055734;28;46024;-65
2022/07/18 07:13:30;;;;;;;;;14.67;14.67;;;;;25.66;35.31;101464.91;5055676;28;45254;-64
2022/07/18 07:15:55;;;;;;;;;11.75;11.50;;;;;25.72;34.73;101461.56;5055861;28;45193;-66
2022/07/18 07:18:21;;;;;;;;;10.75;9.75;;;;;25.77;33.63;101459.19;5056418;28;45160;-64
2022/07/18 07:20:46;;;;;;;;;9.50;9.50;;;;;25.83;34.30;101453.09;5055219;28;45383;-66
2022/07/18 07:23:12;;;;;;;;;10.50;10.50;;;;;25.84;34.15;101438.44;5055355;28;45358;-64
2022/07/18 07:25:38;;;;;;;;;10.00;10.00;;;;;25.95;33.16;101441.91;5058785;28;45248;-63
2022/07/18 07:28:04;;;;;;;;;12.75;11.25;;;;;26.02;34.18;101440.19;5059618;28;45353;-65
2022/07/18 07:30:30;;;;;;;;;10.50;9.75;;;;;26.08;34.21;101442.28;5058905;28;46119;-64
2022/07/18 07:32:56;;;;;;;;;12.00;9.50;;;;;26.17;33.32;101450.31;5058083;28;45267;-64
2022/07/18 07:35:22;;;;;;;;;7.25;7.00;;;;;26.20;32.29;101435.50;5052596;28;45507;-64
2022/07/18 07:37:53;;;;;;;;;4.50;4.50;;;;;26.28;30.68;101446.41;5038531;28;45462;-64
2022/07/18 07:40:19;;;;;;;;;8.00;6.25;;;;;26.34;32.16;101434.84;5038551;28;47195;-66
2022/07/18 07:42:45;;;;;;;;;12.75;9.00;;;;;26.40;31.53;101433.31;5038871;28;45544;-65
2022/07/18 07:45:13;;;;;;;;;7.50;6.50;;;;;26.44;31.22;101430.13;5052257;28;45423;-65
2022/07/18 07:47:39;;;;;;;;;5.00;5.00;;;;;26.55;29.90;101428.91;5059042;28;45425;-65
2022/07/18 07:50:07;;;;;;;;;6.50;4.75;;;;;26.63;30.91;101428.06;5058633;28;46179;-64
2022/07/18 07:52:32;;;;;;;;;5.00;5.00;;;;;26.69;30.83;101427.38;5058755;28;45170;-65
2022/07/18 07:54:58;;;;;;;;;5.00;5.00;;;;;26.80;30.03;101423.44;5056251;28;45333;-64
2022/07/18 07:57:23;;;;;;;;;5.00;5.00;;;;;26.87;30.60;101419.03;5053381;28;45670;-65
2022/07/18 07:59:49;;;;;;;;;5.00;5.00;;;;;26.91;29.97;101420.38;5037099;28;48330;-64
2022/07/18 08:02:15;;;;;;;;;7.00;5.50;;;;;27.00;30.25;101420.19;5053742;28;45324;-64
2022/07/18 08:04:41;;;;;;;;;7.25;6.00;;;;;27.07;29.76;101414.06;5038621;28;45501;-64
2022/07/18 08:07:06;;;;;;;;;7.00;7.00;;;;;27.06;29.96;101402.28;5061053;28;45475;-65
2022/07/18 08:09:31;;;;;;;;;6.50;6.50;;;;;27.19;29.78;101418.13;5057391;28;46150;-66
2022/07/18 08:11:57;;;;;;;;;7.50;5.75;;;;;27.20;30.21;101415.22;5058261;28;45422;-66
2022/07/18 08:14:22;;;;;;;;;7.25;7.00;;;;;27.32;30.12;101418.44;5058861;28;45826;-65
2022/07/18 08:16:48;;;;;;;;;7.25;7.25;;;;;27.38;29.96;101412.28;5058627;28;45437;-65
2022/07/18 08:19:13;;;;;;;;;7.50;5.75;;;;;27.48;29.84;101423.03;5044503;28;45499;-65
2022/07/18 08:21:38;;;;;;;;;7.75;7.75;;;;;27.49;30.54;101403.72;5046654;28;45343;-64
2022/07/18 08:24:04;;;;;;;;;7.75;7.75;;;;;27.65;30.33;101401.97;5058299;28;45466;-64
2022/07/18 08:26:29;;;;;;;;;0.00;0.00;;;;;27.81;30.36;101408.19;5058720;28;45588;-64
2022/07/18 08:28:55;;;;;;;;;10.25;8.50;;;;;28.08;31.26;101409.59;5058362;28;45413;-65
2022/07/18 08:31:20;;;;;;;;;7.25;7.25;;;;;28.56;29.07;101409.44;5057545;28;45318;-65
2022/07/18 08:33:46;;;;;;;;;7.50;6.50;;;;;29.02;30.77;101408.34;5058546;28;45255;-65
2022/07/18 08:36:11;;;;;;;;;9.00;7.50;;;;;29.55;28.56;101411.03;5057896;28;45208;-65
2022/07/18 08:38:37;;;;;;;;;7.00;7.00;;;;;29.99;28.49;101405.50;5057976;28;46381;-66
2022/07/18 08:41:04;;;;;;;;;8.25;8.25;;;;;30.44;27.36;101411.69;5058307;28;45221;-66
2022/07/18 08:43:30;;;;;;;;;9.40;6.00;;;;;30.79;27.76;101399.78;5040435;28;45548;-65
2022/07/18 08:46:04;;;;;;;;;8.00;7.50;;;;;31.20;26.69;101400.94;5038466;28;45343;-64
2022/07/18 08:48:30;;;;;;;;;5.40;5.40;;;;;31.63;26.07;101404.34;5037890;28;46013;-64
2022/07/18 08:50:56;;;;;;;;;9.80;7.60;;;;;31.84;25.31;101415.28;5038554;28;45283;-64
2022/07/18 08:53:22;;;;;;;;;6.25;6.25;;;;;32.21;25.95;101408.41;5038734;28;45449;-65
2022/07/18 08:55:48;;;;;;;;;8.50;7.25;;;;;32.58;25.51;101414.41;5057304;28;45613;-65
2022/07/18 08:58:17;;;;;;;;;9.40;9.40;;;;;32.98;25.49;101409.78;5056599;28;45406;-64
2022/07/18 09:00:44;;;;;;;;;9.00;9.00;;;;;33.32;23.58;101400.34;5073371;27;45230;-65
2022/07/18 09:03:09;;;;;;;;;11.00;7.60;;;;;33.66;23.87;101402.00;5057633;28;45257;-64
2022/07/18 09:05:34;;;;;;;;;7.50;6.25;;;;;33.92;22.56;101406.56;5056001;28;45571;-65
2022/07/18 09:08:10;;;;;;;;;11.00;8.00;;;;;34.16;23.26;101391.16;5036433;28;46890;-63
2022/07/18 09:10:57;;;;;;;;;8.60;8.60;;;;;34.57;22.79;101398.94;5052782;28;45537;-64
2022/07/18 09:13:38;;;;;;;;;6.40;6.40;;;;;34.88;22.58;101400.81;5037903;28;45568;-63
2022/07/18 09:16:11;;;;;;;;;7.00;5.80;;;;;35.21;20.88;101404.34;5043476;28;45453;-65
2022/07/18 09:18:43;;;;;;;;;5.80;5.80;;;;;35.46;21.16;101403.22;5056515;28;46133;-65
2022/07/18 09:21:12;;;;;;;;;6.40;6.40;;;;;35.75;21.39;101400.75;5057812;28;45855;-64
2022/07/18 09:23:43;;;;;;;;;7.80;7.80;;;;;35.94;21.03;101407.09;5057560;28;45288;-65
2022/07/18 09:26:10;;;;;;;;;5.80;5.00;;;;;36.09;20.69;101401.19;5056348;28;45362;-64
2022/07/18 09:28:51;;;;;;;;;5.60;5.60;;;;;36.31;20.29;101405.91;5053545;28;45359;-65
2022/07/18 09:31:26;;;;;;;;;10.20;6.80;;;;;36.56;19.12;101411.31;5057226;28;45390;-63
2022/07/18 09:33:55;;;;;;;;;8.60;6.20;;;;;36.80;20.17;101409.41;5072967;27;45407;-64
2022/07/18 09:36:21;;;;;;;;;6.60;6.60;;;;;37.02;19.79;101401.41;5056250;28;45588;-63
2022/07/18 09:38:47;;;;;;;;;6.75;6.75;;;;;37.30;19.06;101409.00;5072556;28;47456;-65
2022/07/18 09:41:13;;;;;;;;;6.40;6.40;;;;;37.53;17.35;101412.81;5055886;28;45564;-65
2022/07/18 09:43:39;;;;;;;;;7.40;6.40;;;;;37.67;18.91;101414.22;5047355;28;45655;-66
2022/07/18 09:46:06;;;;;;;;;6.00;6.00;;;;;37.87;19.01;101403.56;5036924;28;45593;-64
2022/07/18 09:48:32;;;;;;;;;6.80;5.60;;;;;38.06;18.70;101410.63;5036970;28;46148;-64
2022/07/18 09:51:01;;;;;;;;;5.00;5.00;;;;;38.36;18.36;101412.28;5037047;28;45445;-67
2022/07/18 09:53:31;;;;;;;;;5.60;5.60;;;;;38.47;18.44;101408.59;5037739;28;45320;-65
2022/07/18 09:56:00;;;;;;;;;6.80;6.80;;;;;38.72;19.02;101410.16;5037579;28;45324;-66
2022/07/18 09:58:31;;;;;;;;;6.00;5.80;;;;;38.73;17.94;101406.28;5037031;28;46545;-63
2022/07/18 10:00:59;;;;;;;;;3.00;3.00;;;;;38.96;18.82;101397.75;5040951;28;45291;-64
2022/07/18 10:03:25;;;;;;;;;4.00;4.00;;;;;39.09;17.83;101393.78;5036723;28;45414;-66
2022/07/18 10:05:52;;;;;;;;;7.50;6.00;;;;;39.31;16.73;101402.16;5036998;28;45692;-64
2022/07/18 10:08:21;;;;;;;;;6.60;6.60;;;;;39.37;18.76;101401.16;5036345;28;46910;-67
2022/07/18 10:10:48;;;;;;;;;5.80;5.80;;;;;39.48;17.01;101391.84;5037616;28;45527;-65
2022/07/18 10:13:16;;;;;;;;;7.40;6.20;;;;;39.52;17.14;101396.63;5036559;28;45291;-64
2022/07/18 10:15:44;;;;;;;;;6.00;5.80;;;;;39.31;17.26;101391.03;5056270;28;45478;-66
2022/07/18 10:18:12;;;;;;;;;7.80;7.80;;;;;39.37;18.37;101390.00;5071866;27;45493;-65
2022/07/18 10:20:39;;;;;;;;;7.60;7.60;;;;;39.33;16.90;101383.25;5056332;28;45527;-65
2022/07/18 10:23:13;;;;;;;;;2.40;2.40;;;;;39.19;17.41;101382.78;5055332;27;45475;-65
2022/07/18 10:25:41;;;;;;;;;7.00;7.00;;;;;39.07;17.42;101377.34;5056803;28;45405;-66
2022/07/18 10:28:12;;;;;;;;;7.00;7.00;;;;;39.08;18.22;101376.25;5056118;28;45510;-64
2022/07/18 10:30:37;;;;;;;;;9.20;8.40;;;;;38.87;17.34;101374.25;5056352;28;45345;-65
2022/07/18 10:33:04;;;;;;;;;11.25;10.00;;;;;38.41;18.08;101376.25;5056124;28;45460;-65
2022/07/18 10:35:57;;;;;;;;;6.80;6.00;;;;;37.98;18.78;101382.38;5053714;28;45745;-66
2022/07/18 10:38:22;;;;;;;;;7.60;7.00;;;;;37.65;18.73;101361.75;5046395;28;46397;-65
2022/07/18 10:41:09;;;;;;;;;10.75;8.75;;;;;37.37;19.28;101376.41;5035894;28;45437;-65
2022/07/18 10:43:38;;;;;;;;;9.20;7.60;;;;;37.12;19.49;101364.75;5036224;28;45322;-65
2022/07/18 10:46:04;;;;;;;;;10.40;7.60;;;;;36.88;19.81;101364.75;5049798;28;45464;-65
2022/07/18 10:48:35;;;;;;;;;7.60;7.60;;;;;36.65;19.70;101366.63;5056207;28;46175;-65
2022/07/18 10:51:12;;;;;;;;;9.00;7.00;;;;;36.45;19.73;101366.97;5056197;28;45314;-65
2022/07/18 10:53:59;;;;;;;;;6.00;6.00;;;;;36.25;19.80;101362.56;5055002;28;45279;-64
2022/07/18 10:56:27;;;;;;;;;7.20;7.20;;;;;36.07;20.39;101361.78;5053741;28;45433;-63
2022/07/18 10:58:55;;;;;;;;;9.80;8.80;;;;;35.88;19.21;101363.78;5036571;28;46320;-64
2022/07/18 11:01:23;;;;;;;;;6.20;6.20;;;;;35.70;20.01;101362.72;5042605;28;45234;-65
2022/07/18 11:03:49;;;;;;;;;10.60;10.20;;;;;35.62;20.10;101371.31;5043017;28;45846;-64
2022/07/18 11:06:15;;;;;;;;;10.25;9.25;;;;;35.47;19.15;101368.97;5042184;28;45613;-65
2022/07/18 11:08:41;;;;;;;;;5.80;5.80;;;;;35.32;19.34;101360.19;5044575;28;45616;-66
2022/07/18 11:11:09;;;;;;;;;5.75;5.75;;;;;35.17;19.44;101360.56;5043151;28;45497;-66
2022/07/18 11:13:48;;;;;;;;;5.60;5.60;;;;;35.03;20.08;101347.97;5042653;28;45461;-65
2022/07/18 11:16:16;;;;;;;;;6.80;6.80;;;;;35.09;20.28;101363.63;5042808;28;45327;-66